createdAt,value
2023-04-10T00:07:58.916Z,8.45
2023-04-10T00:09:20.255Z,8.47
2023-04-10T00:10:42.413Z,8.49
2023-04-10T00:12:04.096Z,8.48
2023-04-10T00:14:06.981Z,8.42
2023-04-10T00:15:51.170Z,8.45
2023-04-10T00:18:41.613Z,8.48
2023-04-10T00:20:05.306Z,8.43
2023-04-10T00:24:35.786Z,8.43
2023-04-10T00:26:12.049Z,8.38
2023-04-10T00:27:35.224Z,8.35
2023-04-10T00:29:28.143Z,8.40
2023-04-10T00:30:52.554Z,8.32
2023-04-10T00:32:34.444Z,8.38
2023-04-10T00:33:59.163Z,8.40
2023-04-10T00:35:21.544Z,8.40
2023-04-10T00:36:48.127Z,8.40
2023-04-10T00:38:21.652Z,8.32
2023-04-10T00:39:53.227Z,8.37
2023-04-10T00:41:17.097Z,8.36
2023-04-10T00:42:38.372Z,8.31
2023-04-10T00:44:02.308Z,8.36
2023-04-10T00:46:03.009Z,8.27
2023-04-10T00:47:47.440Z,8.27
2023-04-10T00:49:11.612Z,8.26
2023-04-10T00:50:34.737Z,8.20
2023-04-10T00:52:04.648Z,8.25
2023-04-10T00:53:37.546Z,8.16
2023-04-10T00:55:06.705Z,8.14
2023-04-10T00:57:51.752Z,8.20
2023-04-10T00:59:18.609Z,8.08
2023-04-10T01:00:41.224Z,8.10
2023-04-10T01:02:03.916Z,8.13
2023-04-10T01:03:25.716Z,8.07
2023-04-10T01:04:58.302Z,8.04
2023-04-10T01:06:31.386Z,8.11
2023-04-10T01:08:30.225Z,8.00
2023-04-10T01:10:17.138Z,8.01
2023-04-10T01:14:42.888Z,8.01
2023-04-10T01:16:11.751Z,7.99
2023-04-10T01:17:41.734Z,8.04
2023-04-10T01:19:11.137Z,7.98
2023-04-10T01:20:36.307Z,8.02
2023-04-10T01:22:01.599Z,8.01
2023-04-10T01:23:55.616Z,7.99
2023-04-10T01:25:39.733Z,7.97
2023-04-10T01:27:16.672Z,7.94
2023-04-10T01:29:00.965Z,7.94
2023-04-10T01:30:24.866Z,7.93
2023-04-10T01:31:53.731Z,7.90
2023-04-10T01:33:20.176Z,7.83
2023-04-10T01:34:46.943Z,7.90
2023-04-10T01:36:10.354Z,7.84
2023-04-10T01:37:35.898Z,7.81
2023-04-10T01:38:58.890Z,7.87
2023-04-10T01:41:03.233Z,7.83
2023-04-10T01:42:33.487Z,7.82
2023-04-10T01:43:58.279Z,7.76
2023-04-10T01:45:24.991Z,7.80
2023-04-10T01:46:49.629Z,7.77
2023-04-10T01:48:16.775Z,7.75
2023-04-10T01:49:44.742Z,7.73
2023-04-10T01:51:12.488Z,7.75
2023-04-10T01:52:34.740Z,7.74
2023-04-10T01:54:10.511Z,7.73
2023-04-10T01:55:32.702Z,7.73
2023-04-10T01:57:02.375Z,7.73
2023-04-10T01:58:26.910Z,7.73
2023-04-10T01:59:53.354Z,7.74
2023-04-10T02:01:29.036Z,7.74
2023-04-10T02:02:52.749Z,7.71
2023-04-10T02:04:14.023Z,7.70
2023-04-10T02:05:56.409Z,7.74
2023-04-10T02:07:29.032Z,7.73
2023-04-10T02:08:56.682Z,7.74
2023-04-10T02:10:22.754Z,7.74
2023-04-10T02:12:19.938Z,7.71
2023-04-10T02:13:41.924Z,7.67
2023-04-10T02:15:06.723Z,7.66
2023-04-10T02:16:30.018Z,7.65
2023-04-10T02:17:56.564Z,7.59
2023-04-10T02:19:24.565Z,7.57
2023-04-10T02:20:48.001Z,7.57
2023-04-10T02:22:13.878Z,7.53
2023-04-10T02:23:36.950Z,7.53
2023-04-10T02:24:59.118Z,7.50
2023-04-10T02:26:22.640Z,7.48
2023-04-10T02:27:45.252Z,7.45
2023-04-10T02:29:06.521Z,7.46
2023-04-10T02:30:33.141Z,7.45
2023-04-10T02:31:57.314Z,7.41
2023-04-10T02:33:25.834Z,7.35
2023-04-10T02:34:51.286Z,7.38
2023-04-10T02:36:19.469Z,7.33
2023-04-10T02:37:42.774Z,7.31
2023-04-10T02:39:06.351Z,7.36
2023-04-10T02:40:27.760Z,7.33
2023-04-10T02:42:10.202Z,7.28
2023-04-10T02:43:33.014Z,7.27
2023-04-10T02:44:58.108Z,7.28
2023-04-10T02:46:28.602Z,7.22
2023-04-10T02:47:50.240Z,7.26
2023-04-10T02:49:12.806Z,7.24
2023-04-10T02:50:35.218Z,7.24
2023-04-10T02:51:57.950Z,7.23
2023-04-10T02:53:29.861Z,7.17
2023-04-10T02:54:55.848Z,7.10
2023-04-10T02:56:20.029Z,7.14
2023-04-10T02:57:47.588Z,7.11
2023-04-10T02:59:09.721Z,7.13
2023-04-10T03:00:31.537Z,7.14
2023-04-10T03:04:06.536Z,7.05
2023-04-10T03:05:33.996Z,7.07
2023-04-10T03:06:58.534Z,7.06
2023-04-10T03:08:21.247Z,6.99
2023-04-10T03:09:42.205Z,7.03
2023-04-10T03:11:04.662Z,7.00
2023-04-10T03:12:29.758Z,7.00
2023-04-10T03:13:53.241Z,6.96
2023-04-10T03:15:16.381Z,7.00
2023-04-10T03:16:37.937Z,6.90
2023-04-10T03:18:03.830Z,6.98
2023-04-10T03:19:26.915Z,6.92
2023-04-10T03:20:49.797Z,6.96
2023-04-10T03:22:14.964Z,6.94
2023-04-10T03:23:37.353Z,6.96
2023-04-10T03:24:59.396Z,6.92
2023-04-10T03:26:24.274Z,6.93
2023-04-10T03:27:49.065Z,6.89
2023-04-10T03:29:11.562Z,6.89
2023-04-10T03:30:35.433Z,6.87
2023-04-10T03:31:58.573Z,6.97
2023-04-10T03:33:24.811Z,6.92
2023-04-10T03:37:55.872Z,6.97
2023-04-10T03:39:27.696Z,6.95
2023-04-10T03:43:56.088Z,6.98
2023-04-10T03:45:48.673Z,7.03
2023-04-10T03:47:12.361Z,7.06
2023-04-10T03:48:37.520Z,7.07
2023-04-10T03:50:00.201Z,7.13
2023-04-10T03:51:30.531Z,7.10
2023-04-10T03:53:11.786Z,7.14
2023-04-10T03:54:34.360Z,7.08
2023-04-10T03:56:27.860Z,7.14
2023-04-10T03:57:49.716Z,7.10
2023-04-10T03:59:19.370Z,7.16
2023-04-10T04:00:40.534Z,7.12
2023-04-10T04:05:45.020Z,7.16
2023-04-10T04:07:29.541Z,7.20
2023-04-10T04:10:29.279Z,7.12
2023-04-10T04:12:28.195Z,7.24
2023-04-10T04:13:57.842Z,7.21
2023-04-10T04:15:34.677Z,7.30
2023-04-10T04:17:12.101Z,7.25
2023-04-10T04:18:58.871Z,7.36
2023-04-10T04:20:49.830Z,7.40
2023-04-10T04:22:29.119Z,7.41
2023-04-10T04:24:01.142Z,7.37
2023-04-10T04:26:11.057Z,7.44
2023-04-10T04:27:59.073Z,7.43
2023-04-10T04:29:38.496Z,7.54
2023-04-10T04:31:12.574Z,7.50
2023-04-10T04:32:44.158Z,7.63
2023-04-10T04:35:32.933Z,7.67
2023-04-10T04:37:13.523Z,7.69
2023-04-10T04:38:58.246Z,7.75
2023-04-10T04:40:25.886Z,7.80
2023-04-10T04:42:07.851Z,7.83
2023-04-10T04:43:42.888Z,7.91
2023-04-10T04:45:31.815Z,7.87
2023-04-10T04:47:24.387Z,7.95
2023-04-10T04:49:02.815Z,7.97
2023-04-10T04:50:37.787Z,8.04
2023-04-10T04:52:09.485Z,8.14
2023-04-10T04:53:56.758Z,8.15
2023-04-10T04:55:38.194Z,8.18
2023-04-10T04:57:33.143Z,8.25
2023-04-10T04:58:58.580Z,8.33
2023-04-10T05:00:43.816Z,8.41
2023-04-10T05:02:44.630Z,8.46
2023-04-10T05:04:26.627Z,8.44
2023-04-10T05:06:21.870Z,8.56
2023-04-10T05:08:06.492Z,8.65
2023-04-10T05:09:57.188Z,8.71
2023-04-10T05:11:40.132Z,8.76
2023-04-10T05:13:34.407Z,8.83
2023-04-10T05:15:15.745Z,8.87
2023-04-10T05:17:08.482Z,8.91
2023-04-10T05:18:39.953Z,8.92
2023-04-10T05:20:38.019Z,8.96
2023-04-10T05:22:34.570Z,9.02
2023-04-10T05:24:29.603Z,9.01
2023-04-10T05:26:14.405Z,9.00
2023-04-10T05:27:54.784Z,9.03
2023-04-10T05:29:48.998Z,9.15
2023-04-10T05:31:35.722Z,9.16
2023-04-10T05:33:11.068Z,9.20
2023-04-10T05:35:27.294Z,9.30
2023-04-10T05:36:55.255Z,9.31
2023-04-10T05:38:37.685Z,9.40
2023-04-10T05:43:18.158Z,9.46
2023-04-10T05:44:56.180Z,9.55
2023-04-10T05:46:41.784Z,9.61
2023-04-10T05:48:21.058Z,9.62
2023-04-10T05:50:24.472Z,9.60
2023-04-10T05:52:06.964Z,9.69
2023-04-10T05:53:53.967Z,9.68
2023-04-10T05:55:38.519Z,9.72
2023-04-10T05:57:19.026Z,9.78
2023-04-10T05:59:00.218Z,9.80
2023-04-10T06:00:44.243Z,9.86
2023-04-10T06:02:39.584Z,9.92
2023-04-10T06:04:06.669Z,9.98
2023-04-10T06:05:32.366Z,10.01
2023-04-10T06:10:47.165Z,10.16
2023-04-10T06:12:14.824Z,10.20
2023-04-10T06:14:53.731Z,10.23
2023-04-10T06:19:15.332Z,10.44
2023-04-10T06:20:37.530Z,10.49
2023-04-10T06:22:02.367Z,10.62
2023-04-10T06:23:36.976Z,10.69
2023-04-10T06:25:08.138Z,10.75
2023-04-10T06:27:14.416Z,10.78
2023-04-10T06:28:38.135Z,10.95
2023-04-10T06:30:00.873Z,10.96
2023-04-10T06:34:31.261Z,11.20
2023-04-10T06:35:58.213Z,11.27
2023-04-10T06:37:20.995Z,11.29
2023-04-10T06:42:37.750Z,11.44
2023-04-10T06:46:59.926Z,11.78
2023-04-10T06:48:22.269Z,11.76
2023-04-10T06:49:53.583Z,11.84
2023-04-10T06:51:21.489Z,11.88
2023-04-10T06:52:46.304Z,11.87
2023-04-10T06:54:11.296Z,11.84
2023-04-10T06:55:33.522Z,11.92
2023-04-10T06:56:59.018Z,11.96
2023-04-10T06:58:21.209Z,11.99
2023-04-10T06:59:43.762Z,12.00
2023-04-10T07:01:09.275Z,12.11
2023-04-10T07:02:38.619Z,12.12
2023-04-10T07:04:01.081Z,12.08
2023-04-10T07:05:28.766Z,12.14
2023-04-10T07:06:53.015Z,12.06
2023-04-10T07:08:21.863Z,12.00
2023-04-10T07:09:45.266Z,12.10
2023-04-10T07:11:10.613Z,12.13
2023-04-10T07:12:46.419Z,12.11
2023-04-10T07:14:23.204Z,12.23
2023-04-10T07:15:52.920Z,12.36
2023-04-10T07:17:15.352Z,12.40
2023-04-10T07:18:42.801Z,12.49
2023-04-10T07:20:08.498Z,12.59
2023-04-10T07:21:33.274Z,12.60
2023-04-10T07:22:59.153Z,12.63
2023-04-10T07:24:22.053Z,12.72
2023-04-10T07:25:44.539Z,12.79
2023-04-10T07:28:47.091Z,12.74
2023-04-10T07:30:28.737Z,12.75
2023-04-10T07:32:05.917Z,12.77
2023-04-10T07:33:36.618Z,12.73
2023-04-10T07:34:59.270Z,12.75
2023-04-10T07:39:46.461Z,12.81
2023-04-10T07:41:35.688Z,12.83
2023-04-10T07:43:56.063Z,12.96
2023-04-10T07:47:48.698Z,13.30
2023-04-10T07:49:21.965Z,13.75
2023-04-10T07:50:44.511Z,14.04
2023-04-10T07:52:06.965Z,14.18
2023-04-10T07:53:33.353Z,14.34
2023-04-10T07:55:13.350Z,14.39
2023-04-10T08:00:00.661Z,14.60
2023-04-10T08:01:26.586Z,14.75
2023-04-10T08:12:59.142Z,17.52
2023-04-10T08:17:18.845Z,20.74
2023-04-10T08:19:07.621Z,21.03
2023-04-10T08:20:41.658Z,20.88
2023-04-10T08:22:06.972Z,22.23
2023-04-10T08:24:27.594Z,22.03
2023-04-10T08:28:25.762Z,21.26
2023-04-10T08:30:29.397Z,20.55
2023-04-10T08:31:55.428Z,20.23
2023-04-10T08:33:19.544Z,20.01
2023-04-10T08:34:42.362Z,19.77
2023-04-10T08:37:00.978Z,19.69
2023-04-10T08:38:32.980Z,19.64
2023-04-10T08:39:55.741Z,19.68
2023-04-10T08:41:21.548Z,19.58
2023-04-10T08:46:11.093Z,19.13
2023-04-10T08:47:39.307Z,19.03
2023-04-10T08:49:04.689Z,19.32
2023-04-10T08:53:22.543Z,23.43
2023-04-10T08:54:54.803Z,23.61
2023-04-10T08:59:37.083Z,23.82
2023-04-10T09:03:49.626Z,24.93
2023-04-10T09:06:03.021Z,25.06
2023-04-10T09:08:16.086Z,24.84
2023-04-10T09:10:53.912Z,25.63
2023-04-10T09:12:32.422Z,24.93
2023-04-10T09:13:57.018Z,24.41
2023-04-10T09:15:35.005Z,24.16
2023-04-10T09:17:22.867Z,23.94
2023-04-10T09:18:49.070Z,23.68
2023-04-10T09:20:29.787Z,23.27
2023-04-10T09:22:17.354Z,22.95
2023-04-10T09:23:54.041Z,22.79
2023-04-10T09:25:55.462Z,26.93
2023-04-10T09:27:39.692Z,29.94
2023-04-10T09:29:57.307Z,32.60
2023-04-10T09:31:33.543Z,35.63
2023-04-10T09:33:09.287Z,37.65
2023-04-10T09:37:41.289Z,36.99
2023-04-10T09:39:10.071Z,38.92
2023-04-10T09:40:42.584Z,37.76
2023-04-10T09:42:05.258Z,36.50
2023-04-10T09:43:28.885Z,36.89
2023-04-10T09:45:00.184Z,37.07
2023-04-10T09:49:32.978Z,38.76
2023-04-10T09:51:00.508Z,40.40
2023-04-10T09:52:23.608Z,41.38
2023-04-10T09:53:59.297Z,42.99
2023-04-10T09:55:21.915Z,44.39
2023-04-10T09:56:50.602Z,44.95
2023-04-10T09:58:17.236Z,45.84
2023-04-10T09:59:42.922Z,46.56
2023-04-10T10:01:05.996Z,47.13
2023-04-10T10:02:32.717Z,47.43
2023-04-10T10:03:57.381Z,48.22
2023-04-10T10:05:29.099Z,48.78
2023-04-10T10:06:51.638Z,49.35
2023-04-10T10:08:24.214Z,49.72
2023-04-10T10:09:57.036Z,50.13
2023-04-10T10:11:22.885Z,50.40
2023-04-10T10:12:53.013Z,50.46
2023-04-10T10:14:21.654Z,50.57
2023-04-10T10:15:57.247Z,50.72
2023-04-10T10:17:27.630Z,50.71
2023-04-10T10:19:06.378Z,50.74
2023-04-10T10:20:57.760Z,50.64
2023-04-10T10:22:21.580Z,50.60
2023-04-10T10:23:56.315Z,50.55
2023-04-10T10:25:21.491Z,50.42
2023-04-10T10:26:44.831Z,50.09
2023-04-10T10:28:07.425Z,49.52
2023-04-10T10:29:41.142Z,48.45
2023-04-10T10:31:05.364Z,47.86
2023-04-10T10:32:32.403Z,47.06
2023-04-10T10:33:56.589Z,45.77
2023-04-10T10:35:22.415Z,43.48
2023-04-10T10:36:54.622Z,41.75
2023-04-10T10:39:12.642Z,39.28
2023-04-10T10:40:56.437Z,37.42
2023-04-10T10:42:27.989Z,35.84
2023-04-10T10:44:02.740Z,34.52
2023-04-10T10:45:38.428Z,33.22
2023-04-10T10:47:22.699Z,31.91
2023-04-10T10:49:00.960Z,30.79
2023-04-10T10:50:53.962Z,29.56
2023-04-10T10:52:23.685Z,28.73
2023-04-10T10:53:46.540Z,27.88
2023-04-10T10:55:36.201Z,26.97
2023-04-10T10:57:02.092Z,26.27
2023-04-10T10:58:59.749Z,25.53
2023-04-10T11:00:25.509Z,24.94
2023-04-10T11:02:16.298Z,24.34
2023-04-10T11:03:39.314Z,24.05
2023-04-10T11:05:01.725Z,23.79
2023-04-10T11:06:52.672Z,23.38
2023-04-10T11:08:17.378Z,23.15
2023-04-10T11:10:20.366Z,22.75
2023-04-10T11:12:01.608Z,22.44
2023-04-10T11:13:24.895Z,22.30
2023-04-10T11:18:27.379Z,21.99
2023-04-10T11:20:01.243Z,22.06
2023-04-10T11:21:23.895Z,22.20
2023-04-10T11:23:12.132Z,22.27
2023-04-10T11:25:10.604Z,22.39
2023-04-10T11:26:52.942Z,22.45
2023-04-10T11:28:39.716Z,22.47
2023-04-10T11:30:09.059Z,22.53
2023-04-10T11:33:00.805Z,22.54
2023-04-10T11:34:27.160Z,22.57
2023-04-10T11:39:46.035Z,22.53
2023-04-10T11:49:37.822Z,21.56
2023-04-10T11:51:06.566Z,21.35
2023-04-10T11:53:15.073Z,21.02
2023-04-10T11:55:31.671Z,20.63
2023-04-10T11:57:02.611Z,20.48
2023-04-10T11:58:46.596Z,20.36
2023-04-10T12:00:16.440Z,20.28
2023-04-10T12:01:41.950Z,20.13
2023-04-10T12:03:06.582Z,20.22
2023-04-10T12:05:15.237Z,20.21
2023-04-10T12:06:45.978Z,20.30
2023-04-10T12:10:05.339Z,20.55
2023-04-10T12:11:28.950Z,20.71
2023-04-10T12:12:52.630Z,20.85
2023-04-10T12:14:15.161Z,21.00
2023-04-10T12:15:38.972Z,21.10
2023-04-10T12:17:05.699Z,21.17
2023-04-10T12:18:28.147Z,21.18
2023-04-10T12:19:52.932Z,21.25
2023-04-10T12:21:19.444Z,21.29
2023-04-10T12:22:48.394Z,21.19
2023-04-10T12:24:11.272Z,21.19
2023-04-10T12:31:34.307Z,20.52
2023-04-10T12:33:24.047Z,21.11
2023-04-10T12:33:33.757Z,20.25
2023-04-10T12:35:11.348Z,20.05
2023-04-10T12:43:50.413Z,18.79
2023-04-10T12:45:21.700Z,18.60
2023-04-10T12:46:44.729Z,18.51
2023-04-10T12:49:01.094Z,18.32
2023-04-10T12:50:59.971Z,18.23
2023-04-10T12:52:24.743Z,18.18
2023-04-10T12:53:51.402Z,18.22
2023-04-10T12:55:16.142Z,18.32
2023-04-10T12:56:48.623Z,18.40
2023-04-10T12:58:30.624Z,18.47
2023-04-10T13:00:22.738Z,18.35
2023-04-10T13:01:51.356Z,18.34
2023-04-10T13:03:13.740Z,18.34
2023-04-10T13:04:36.394Z,18.24
2023-04-10T13:06:00.414Z,18.20
2023-04-10T13:07:22.338Z,18.10
2023-04-10T13:08:46.771Z,17.97
2023-04-10T13:10:21.669Z,17.78
2023-04-10T13:13:52.954Z,17.47
2023-04-10T13:18:13.872Z,17.08
2023-04-10T13:19:36.478Z,17.01
2023-04-10T13:21:03.418Z,16.88
2023-04-10T13:22:31.136Z,16.78
2023-04-10T13:33:11.009Z,16.45
2023-04-10T13:34:36.333Z,16.51
2023-04-10T13:41:27.744Z,16.74
2023-04-10T13:46:08.990Z,17.14
2023-04-10T13:51:22.541Z,17.36
2023-04-10T13:52:46.560Z,17.41
2023-04-10T13:54:10.979Z,17.40
2023-04-10T13:55:33.536Z,17.39
2023-04-10T13:56:56.311Z,17.38
2023-04-10T13:58:18.728Z,17.28
2023-04-10T13:59:40.664Z,17.28
2023-04-10T14:01:07.027Z,17.28
2023-04-10T14:02:31.227Z,17.14
2023-04-10T14:03:55.103Z,17.14
2023-04-10T14:05:23.289Z,17.10
2023-04-10T14:06:45.576Z,17.03
2023-04-10T14:08:11.864Z,16.99
2023-04-10T14:09:36.413Z,16.95
2023-04-10T14:11:12.118Z,16.97
2023-04-10T14:12:47.722Z,16.92
2023-04-10T14:14:20.325Z,16.88
2023-04-10T14:15:57.639Z,16.76
2023-04-10T14:17:44.631Z,16.67
2023-04-10T14:19:30.519Z,16.51
2023-04-10T14:21:02.484Z,16.45
2023-04-10T14:23:06.323Z,16.25
2023-04-10T14:24:31.328Z,16.25
2023-04-10T14:25:56.502Z,16.13
2023-04-10T14:27:29.779Z,16.06
2023-04-10T14:28:55.347Z,15.92
2023-04-10T14:31:05.514Z,15.82
2023-04-10T14:32:37.429Z,15.73
2023-04-10T14:34:11.478Z,15.66
2023-04-10T16:54:56.096Z,13.27
2023-04-10T16:56:20.056Z,13.32
2023-04-10T16:58:08.456Z,13.26
2023-04-10T16:59:43.282Z,13.33
2023-04-10T17:01:28.196Z,13.26
2023-04-10T17:03:08.739Z,13.29
2023-04-10T17:04:34.412Z,13.28
2023-04-10T17:06:02.580Z,13.25
2023-04-10T17:07:30.508Z,13.25
2023-04-10T17:08:53.453Z,13.23
2023-04-10T17:10:18.431Z,13.17
2023-04-10T17:11:44.156Z,13.18
2023-04-10T17:13:14.648Z,13.11
2023-04-10T17:18:11.776Z,13.08
2023-04-10T17:19:44.986Z,12.93
2023-04-10T17:21:21.161Z,12.91
2023-04-10T17:22:50.917Z,12.91
2023-04-10T17:24:29.422Z,12.89
2023-04-10T17:32:40.133Z,12.67
2023-04-10T17:34:05.457Z,12.65
2023-04-10T17:35:30.804Z,12.59
2023-04-10T17:59:51.950Z,12.05
2023-04-10T18:01:34.116Z,12.05
2023-04-10T18:03:01.218Z,12.04
2023-04-10T18:09:03.895Z,11.95
2023-04-10T18:11:04.181Z,11.93
2023-04-10T18:12:57.122Z,11.94
2023-04-10T18:17:44.632Z,11.91
2023-04-10T18:20:21.013Z,11.94
2023-04-10T18:24:12.254Z,11.88
2023-04-10T18:25:37.513Z,11.88
2023-04-10T18:27:01.172Z,11.87
2023-04-10T18:29:21.025Z,11.88
2023-04-10T18:34:08.832Z,11.80
2023-04-10T18:35:45.704Z,11.73
2023-04-10T18:40:17.089Z,11.68
2023-04-10T18:41:43.942Z,11.75
2023-04-10T18:43:06.808Z,11.70
2023-04-10T18:54:14.155Z,11.59
2023-04-10T18:55:37.398Z,11.54
2023-04-10T18:57:23.973Z,11.59
2023-04-10T18:59:37.546Z,11.57
2023-04-10T19:01:13.296Z,11.53
2023-04-10T19:02:50.273Z,11.48
2023-04-10T19:04:51.603Z,11.45
2023-04-10T19:09:10.911Z,11.49
2023-04-10T19:10:37.770Z,11.49
2023-04-10T19:12:01.721Z,11.51
2023-04-10T19:13:28.472Z,11.51
2023-04-10T19:14:52.934Z,11.43
2023-04-10T19:17:01.996Z,11.43
2023-04-10T19:18:47.481Z,11.45
2023-04-10T19:20:59.509Z,11.42
2023-04-10T19:22:40.866Z,11.49
2023-04-10T19:24:10.431Z,11.51
2023-04-10T19:25:35.425Z,11.52
2023-04-10T19:26:57.865Z,11.49
2023-04-10T19:32:38.969Z,11.38
2023-04-10T19:34:22.016Z,11.43
2023-04-10T19:35:46.651Z,11.47
2023-04-10T19:37:22.010Z,11.37
2023-04-10T19:39:03.588Z,11.42
2023-04-10T19:40:26.212Z,11.42
2023-04-10T19:41:48.472Z,11.41
2023-04-10T19:43:21.185Z,11.43
2023-04-10T19:44:46.547Z,11.44
2023-04-10T19:46:08.820Z,11.35
2023-04-10T19:47:31.234Z,11.43
2023-04-10T19:48:54.887Z,11.42
2023-04-10T19:50:17.312Z,11.43
2023-04-10T19:51:40.130Z,11.42
2023-04-10T19:53:02.403Z,11.37
2023-04-10T19:54:27.008Z,11.36
2023-04-10T19:55:49.071Z,11.41
2023-04-10T19:57:14.236Z,11.41
2023-04-10T19:58:40.963Z,11.37
2023-04-10T20:00:24.933Z,11.35
2023-04-10T20:01:47.472Z,11.38
2023-04-10T20:03:18.144Z,11.38
2023-04-10T20:04:48.588Z,11.35
2023-04-10T20:06:13.025Z,11.30
2023-04-10T20:07:35.448Z,11.32
2023-04-10T20:09:01.584Z,11.28
2023-04-10T20:10:25.647Z,11.26
2023-04-10T20:11:51.532Z,11.23
2023-04-10T20:13:13.868Z,11.26
2023-04-10T20:14:36.446Z,11.20
2023-04-10T20:15:58.894Z,11.20
2023-04-10T20:17:53.463Z,11.13
2023-04-10T20:19:19.315Z,11.20
2023-04-10T20:20:44.886Z,11.20
2023-04-10T20:22:11.952Z,11.16
2023-04-10T20:23:34.581Z,11.12
2023-04-10T20:24:56.144Z,11.13
2023-04-10T20:26:44.951Z,11.11
2023-04-10T20:28:10.486Z,11.11
2023-04-10T20:30:52.344Z,10.99
2023-04-10T20:34:35.651Z,10.92
2023-04-10T20:39:31.884Z,10.85
2023-04-10T20:41:34.263Z,10.94
2023-04-10T20:45:40.741Z,10.86
2023-04-10T20:47:07.089Z,10.77
2023-04-10T20:48:48.384Z,10.80
2023-04-10T21:08:37.866Z,10.53
2023-04-10T21:10:06.453Z,10.54
2023-04-10T21:21:15.581Z,10.47
2023-04-10T21:22:58.750Z,10.46
2023-04-10T21:25:55.868Z,10.53
2023-04-10T21:36:31.697Z,10.42
2023-04-10T21:37:11.098Z,10.39
2023-04-10T21:38:35.605Z,10.41
2023-04-10T21:39:59.291Z,10.36
2023-04-10T22:58:29.299Z,9.61
2023-04-10T22:59:50.732Z,9.63
2023-04-10T23:01:13.676Z,9.58
2023-04-10T23:02:41.839Z,9.65
2023-04-10T23:04:14.429Z,9.64
2023-04-10T23:05:43.235Z,9.59
2023-04-10T23:07:04.502Z,9.61
2023-04-10T23:08:29.360Z,9.57
2023-04-10T23:09:51.224Z,9.64
2023-04-10T23:11:20.321Z,9.57
2023-04-10T23:12:43.662Z,9.61
2023-04-10T23:14:55.977Z,9.62
2023-04-10T23:16:44.110Z,9.61
2023-04-10T23:18:17.132Z,9.56
2023-04-10T23:19:40.056Z,9.49
2023-04-10T23:21:34.782Z,9.46
2023-04-10T23:23:12.237Z,9.46
2023-04-10T23:24:36.930Z,9.53
2023-04-10T23:26:02.935Z,9.48
2023-04-10T23:27:31.351Z,9.47
2023-04-10T23:28:56.361Z,9.48
2023-04-10T23:30:19.071Z,9.46
2023-04-10T23:31:41.792Z,9.49
2023-04-10T23:33:07.188Z,9.42
2023-04-10T23:36:38.555Z,9.39
2023-04-10T23:38:06.841Z,9.34
2023-04-10T23:39:31.031Z,9.34
2023-04-10T23:40:55.871Z,9.42
2023-04-10T23:42:21.390Z,9.39
2023-04-10T23:44:34.109Z,9.30
2023-04-10T23:46:05.210Z,9.35
2023-04-10T23:47:29.077Z,9.32
2023-04-10T23:48:54.687Z,9.36
2023-04-10T23:50:22.761Z,9.23
2023-04-10T23:52:59.569Z,9.31
2023-04-10T23:54:19.926Z,9.26
2023-04-10T23:55:40.898Z,9.22
2023-04-10T23:57:05.175Z,9.16
2023-04-10T23:58:32.882Z,9.22
2023-04-10T23:59:54.291Z,9.24
